Time;durP1;ratioP1;P1;durP2;ratioP2;P2;SDS_P1;SDS_P2;PMS_P1;PMS_P2;Temp;Humidity;BMP_temperature;BMP_pressure;BME280_temperature;BME280_humidity;BME280_pressure;Samples;Min_cycle;Max_cycle;Signal;HPM_P1;HPM_P2
2022/03/22 00:09:10;;;;;;;3.77;2.40;;;;;;;;;;20740692;28;20215;-74
2022/03/22 00:19:12;;;;;;;3.30;2.47;;;;;;;;;;20741067;28;20265;-71
2022/03/22 00:29:14;;;;;;;9.33;2.57;;;;;;;;;;20743592;28;20237;-72
2022/03/22 00:39:16;;;;;;;4.27;2.70;;;10.60;99.90;;;;;;20754264;28;20235;-72
2022/03/22 00:49:18;;;;;;;3.77;2.40;;;;;;;;;;20755893;28;20686;-71
2022/03/22 01:09:40;;;;;;;4.43;2.57;;;;;;;;;;20752697;28;20272;-72
2022/03/22 01:19:42;;;;;;;3.07;2.00;;;;;;;;;;20753636;28;20215;-71
2022/03/22 01:29:44;;;;;;;3.90;2.33;;;;;;;;;;20754326;28;20226;-72
2022/03/22 01:39:45;;;;;;;3.50;2.47;;;;;;;;;;20751265;28;20211;-71
2022/03/22 01:49:47;;;;;;;3.93;2.50;;;;;;;;;;20750594;28;20245;-72
2022/03/22 01:59:49;;;;;;;4.20;2.00;;;;;;;;;;20750104;28;20254;-71
2022/03/22 02:09:51;;;;;;;4.50;2.10;;;;;;;;;;20746160;28;20202;-70
2022/03/22 02:19:54;;;;;;;4.23;2.17;;;8.90;99.90;;;;;;20749150;28;20273;-70
2022/03/22 02:29:56;;;;;;;3.43;1.70;;;9.10;99.90;;;;;;20746346;28;20211;-71
2022/03/22 02:39:58;;;;;;;4.03;2.40;;;;;;;;;;20745354;28;20215;-71
2022/03/22 02:49:59;;;;;;;4.90;1.97;;;;;;;;;;20746576;28;20667;-71
2022/03/22 03:00:03;;;;;;;6.40;2.93;;;;;;;;;;20844051;22;20231;-65
2022/03/22 03:10:06;;;;;;;4.50;2.47;;;;;;;;;;20783860;28;20219;-65
2022/03/22 03:20:08;;;;;;;3.90;2.17;;;;;;;;;;20767607;28;20284;-65
2022/03/22 03:30:10;;;;;;;4.10;2.40;;;;;;;;;;20774149;28;20222;-65
2022/03/22 03:40:13;;;;;;;3.33;2.10;;;;;;;;;;20783665;28;20285;-65
2022/03/22 03:50:14;;;;;;;3.40;1.43;;;;;;;;;;20776645;28;20210;-66
2022/03/22 04:00:17;;;;;;;3.60;2.33;;;;;;;;;;20784084;28;20218;-66
2022/03/22 04:10:19;;;;;;;3.07;1.83;;;;;;;;;;20790765;28;20264;-65
2022/03/22 04:20:21;;;;;;;4.40;1.70;;;;;;;;;;20807195;28;20581;-65
2022/03/22 04:40:45;;;;;;;3.00;1.70;;;;;;;;;;20730362;28;20254;-65
2022/03/22 04:50:47;;;;;;;3.37;1.73;;;;;;;;;;20721572;28;20220;-65
2022/03/22 05:00:49;;;;;;;2.40;1.80;;;;;;;;;;20773552;28;20264;-65
2022/03/22 05:10:50;;;;;;;3.40;2.07;;;;;;;;;;20804714;28;20584;-65
2022/03/22 05:20:52;;;;;;;3.43;2.10;;;;;;;;;;20795567;28;20222;-66
2022/03/22 05:30:54;;;;;;;3.50;2.23;;;;;;;;;;20788736;28;20236;-66
2022/03/22 05:40:56;;;;;;;6.97;1.93;;;;;;;;;;20802409;28;20223;-66
2022/03/22 05:50:58;;;;;;;3.33;2.03;;;;;;;;;;20816995;28;20227;-66
2022/03/22 06:01:00;;;;;;;3.50;2.13;;;;;;;;;;20801019;28;20226;-66
2022/03/22 06:11:02;;;;;;;2.63;1.70;;;;;;;;;;20800069;28;20214;-65
2022/03/22 06:21:04;;;;;;;5.40;2.67;;;;;;;;;;20798999;28;20273;-65
2022/03/22 06:31:06;;;;;;;3.10;1.93;;;;;;;;;;20772858;28;20272;-66
2022/03/22 06:41:08;;;;;;;4.03;2.23;;;;;;;;;;20781033;28;20292;-65
2022/03/22 06:51:10;;;;;;;4.47;2.07;;;;;;;;;;20719620;28;20775;-66
2022/03/22 07:01:11;;;;;;;4.57;3.00;;;;;;;;;;20795388;28;20215;-66
2022/03/22 07:21:34;;;;;;;5.67;3.00;;;;;;;;;;20780906;28;20230;-66
2022/03/22 07:31:38;;;;;;;2.83;2.40;;;;;;;;;;20756191;28;20268;-66
2022/03/22 07:41:43;;;;;;;4.13;2.90;;;7.60;99.90;;;;;;20787695;28;20245;-65
2022/03/22 08:02:07;;;;;;;3.97;2.43;;;10.20;99.90;;;;;;20791717;28;20218;-66
2022/03/22 08:12:09;;;;;;;4.17;2.53;;;10.40;99.90;;;;;;20727876;28;20211;-66
2022/03/22 08:22:11;;;;;;;4.53;2.63;;;;;;;;;;20710901;28;20227;-65
2022/03/22 08:32:12;;;;;;;3.80;2.27;;;;;;;;;;20722302;28;20272;-66
2022/03/22 08:42:14;;;;;;;4.23;2.67;;;;;;;;;;20765387;28;20266;-66
2022/03/22 08:52:16;;;;;;;4.07;2.53;;;;;;;;;;20712294;28;20686;-66
2022/03/22 09:02:18;;;;;;;4.80;3.10;;;;;;;;;;20862053;22;20260;-71
2022/03/22 09:12:19;;;;;;;4.27;2.17;;;;;;;;;;20907862;28;20571;-71
2022/03/22 09:22:22;;;;;;;3.20;2.37;;;;;;;;;;20941618;28;20632;-74
2022/03/22 09:32:25;;;;;;;5.47;3.03;;;;;;;;;;20916402;28;20226;-72
2022/03/22 09:42:28;;;;;;;4.40;3.10;;;;;;;;;;20908299;28;20283;-73
2022/03/22 09:52:29;;;;;;;5.87;3.17;;;;;;;;;;20908053;28;20692;-72
2022/03/22 10:02:32;;;;;;;4.50;2.70;;;;;;;;;;20902167;28;20287;-73
2022/03/22 10:12:38;;;;;;;5.17;3.07;;;13.70;99.90;;;;;;20901540;28;20583;-73
2022/03/22 10:22:39;;;;;;;7.00;3.00;;;;;;;;;;20852580;28;20274;-72
2022/03/22 10:32:43;;;;;;;4.47;2.60;;;;;;;;;;20817620;28;20210;-72
2022/03/22 10:42:45;;;;;;;4.20;2.90;;;;;;;;;;20817128;28;20259;-73
2022/03/22 10:52:47;;;;;;;5.10;3.27;;;;;;;;;;20896411;28;20198;-73
2022/03/22 11:02:51;;;;;;;4.87;2.60;;;;;;;;;;20956488;28;20212;-73
2022/03/22 11:12:53;;;;;;;4.63;2.63;;;;;;;;;;20914845;28;20264;-73
2022/03/22 11:22:56;;;;;;;4.83;2.70;;;;;;;;;;20898881;28;20240;-72
2022/03/22 11:43:19;;;;;;;4.53;3.00;;;;;;;;;;20908950;28;20205;-73
2022/03/22 11:53:23;;;;;;;4.50;3.03;;;;;;;;;;20920364;28;20255;-74
2022/03/22 12:03:31;;;;;;;4.37;3.43;;;16.50;99.90;;;;;;20912836;28;20255;-74
2022/03/22 12:13:48;;;;;;;5.90;3.43;;;16.90;99.90;;;;;;20934264;28;20213;-73
2022/03/22 12:23:50;;;;;;;4.73;3.40;;;;;;;;;;20991883;28;20253;-74
2022/03/22 12:33:56;;;;;;;5.50;3.40;;;17.30;99.90;;;;;;20957419;28;20292;-73
2022/03/22 12:43:58;;;;;;;4.67;3.30;;;;;;;;;;20922583;28;20201;-74
2022/03/22 12:54:03;;;;;;;5.27;3.40;;;17.50;99.90;;;;;;20985839;28;20208;-74
2022/03/22 13:04:06;;;;;;;5.40;3.37;;;;;;;;;;20987480;28;20266;-74
2022/03/22 13:24:35;;;;;;;5.07;3.63;;;;;;;;;;20982146;28;20189;-73
2022/03/22 13:34:38;;;;;;;4.83;3.60;;;;;;;;;;20981054;28;20213;-73
2022/03/22 13:44:45;;;;;;;5.70;4.00;;;;;;;;;;20938792;28;20653;-73
2022/03/22 13:54:47;;;;;;;4.17;3.13;;;;;;;;;;20892895;28;20272;-74
2022/03/22 14:04:49;;;;;;;5.73;3.53;;;;;;;;;;20904826;28;20247;-74
2022/03/22 14:14:50;;;;;;;7.40;4.33;;;;;;;;;;20983847;28;20217;-73
2022/03/22 14:24:52;;;;;;;5.27;3.77;;;;;;;;;;20979592;28;20247;-73
2022/03/22 14:45:15;;;;;;;4.30;3.27;;;;;;;;;;20912591;28;20225;-73
2022/03/22 15:05:38;;;;;;;7.33;3.63;;;;;;;;;;20714329;28;20301;-65
2022/03/22 15:15:41;;;;;;;6.10;2.87;;;;;;;;;;20655568;28;20226;-65
2022/03/22 15:25:45;;;;;;;4.10;3.07;;;;;;;;;;20701392;28;20223;-65
2022/03/22 15:35:47;;;;;;;4.87;3.20;;;16.90;97.50;;;;;;20702832;28;20223;-66
2022/03/22 15:45:51;;;;;;;3.77;2.83;;;16.80;98.90;;;;;;20700480;28;20211;-64
2022/03/22 15:55:54;;;;;;;8.67;2.73;;;;;;;;;;20710763;28;20273;-64
2022/03/22 16:05:56;;;;;;;4.60;2.97;;;;;;;;;;20623546;28;20215;-64
2022/03/22 16:15:58;;;;;;;4.93;2.73;;;;;;;;;;20659344;28;20283;-66
2022/03/22 16:26:01;;;;;;;2.70;2.17;;;16.10;98.60;;;;;;20640365;28;20276;-66
2022/03/22 16:46:29;;;;;;;4.03;3.00;;;;;;;;;;20706268;28;20277;-65
2022/03/22 16:56:31;;;;;;;4.57;2.80;;;;;;;;;;20632878;28;20227;-66
2022/03/22 17:06:34;;;;;;;4.47;3.20;;;;;;;;;;20654385;28;20279;-66
2022/03/22 17:16:37;;;;;;;5.13;2.90;;;15.90;99.90;;;;;;20677685;28;20228;-67
2022/03/22 17:26:39;;;;;;;4.77;2.77;;;;;;;;;;20636102;28;20216;-66
2022/03/22 17:36:41;;;;;;;4.30;2.83;;;;;;;;;;20665135;28;20223;-64
2022/03/22 17:46:43;;;;;;;4.57;3.10;;;;;;;;;;20603784;28;20701;-65
2022/03/22 17:56:44;;;;;;;5.60;3.73;;;;;;;;;;20629709;28;20286;-65
2022/03/22 18:06:46;;;;;;;4.97;3.57;;;;;;;;;;20582355;28;20317;-65
2022/03/22 18:16:49;;;;;;;9.23;4.43;;;14.80;99.90;;;;;;20579082;28;20224;-66
2022/03/22 18:26:51;;;;;;;5.80;3.73;;;;;;;;;;20652149;28;20228;-66
2022/03/22 18:36:53;;;;;;;6.33;3.50;;;;;;;;;;20595978;28;20601;-64
2022/03/22 18:46:55;;;;;;;6.67;2.90;;;;;;;;;;20603553;28;20274;-64
2022/03/22 18:56:57;;;;;;;5.03;3.03;;;;;;;;;;20635854;28;20219;-64
2022/03/22 19:07:00;;;;;;;7.40;3.47;;;;;;;;;;20634834;28;20223;-64
2022/03/22 19:27:23;;;;;;;7.13;3.70;;;;;;;;;;20635879;28;20668;-64
2022/03/22 19:37:25;;;;;;;4.50;3.07;;;;;;;;;;20616024;28;20768;-65
2022/03/22 19:47:27;;;;;;;3.87;2.77;;;;;;;;;;20650737;28;20282;-65
2022/03/22 19:57:29;;;;;;;6.37;3.40;;;;;;;;;;20659562;28;20273;-65
2022/03/22 20:07:35;;;;;;;4.63;3.10;;;;;;;;;;20567632;28;20771;-64
2022/03/22 20:17:38;;;;;;;4.60;2.97;;;;;;;;;;20610555;28;20284;-64
2022/03/22 20:27:45;;;;;;;6.37;3.47;;;;;;;;;;20673093;28;20231;-64
2022/03/22 20:37:48;;;;;;;4.17;2.73;;;;;;;;;;20636002;28;20287;-64
2022/03/22 20:47:53;;;;;;;4.67;2.90;;;12.60;99.90;;;;;;20628962;28;20219;-64
2022/03/22 21:08:16;;;;;;;6.13;2.80;;;;;;;;;;20653512;28;20586;-64
2022/03/22 21:18:18;;;;;;;4.77;3.13;;;;;;;;;;20638599;28;20294;-64
2022/03/22 21:28:20;;;;;;;4.73;3.10;;;;;;;;;;20663843;28;20231;-65
2022/03/22 21:38:22;;;;;;;6.10;2.40;;;;;;;;;;20640262;28;20236;-64
2022/03/22 21:48:24;;;;;;;5.57;3.03;;;;;;;;;;20681659;28;20282;-64
2022/03/22 21:58:26;;;;;;;8.13;2.87;;;;;;;;;;20731410;28;20219;-64
2022/03/22 22:08:28;;;;;;;5.70;2.87;;;;;;;;;;20718805;28;20234;-64
2022/03/22 22:18:30;;;;;;;5.53;2.97;;;11.80;99.90;;;;;;20702017;28;20286;-65
2022/03/22 22:28:32;;;;;;;4.17;2.87;;;;;;;;;;20654138;28;20216;-64
2022/03/22 22:38:34;;;;;;;5.23;2.83;;;;;;;;;;20647894;28;20220;-64
2022/03/22 22:48:36;;;;;;;5.23;3.33;;;;;;;;;;20724019;28;20215;-64
2022/03/22 22:58:37;;;;;;;4.90;3.40;;;;;;;;;;20715031;28;20583;-64
2022/03/22 23:18:59;;;;;;;5.50;3.67;;;;;;;;;;20729678;28;20937;-65
2022/03/22 23:29:01;;;;;;;4.10;2.73;;;;;;;;;;20729504;28;20219;-64
2022/03/22 23:39:03;;;;;;;5.77;2.83;;;;;;;;;;20684609;28;20293;-66
2022/03/22 23:49:06;;;;;;;4.73;3.17;;;;;;;;;;20696365;28;20677;-66
2022/03/22 23:59:07;;;;;;;4.93;2.90;;;6.20;99.90;;;;;;20726934;28;20223;-64
